sensor_id;sensor_type;location;lat;lon;timestamp;temperature;humidity
43043;DHT22;28667;50.758;6.096;2023-08-12T00:01:13;20.80;99.90
43043;DHT22;28667;50.758;6.096;2023-08-12T00:03:38;20.80;99.90
43043;DHT22;28667;50.758;6.096;2023-08-12T00:06:04;20.80;99.90
43043;DHT22;28667;50.758;6.096;2023-08-12T00:08:31;20.80;99.90
43043;DHT22;28667;50.758;6.096;2023-08-12T00:10:57;20.80;99.90
43043;DHT22;28667;50.758;6.096;2023-08-12T00:13:22;20.80;99.90
43043;DHT22;28667;50.758;6.096;2023-08-12T00:15:48;20.70;99.90
43043;DHT22;28667;50.758;6.096;2023-08-12T00:18:14;20.70;99.90
43043;DHT22;28667;50.758;6.096;2023-08-12T00:20:41;20.80;99.90
43043;DHT22;28667;50.758;6.096;2023-08-12T00:23:08;20.70;99.90
43043;DHT22;28667;50.758;6.096;2023-08-12T00:25:34;20.70;99.90
43043;DHT22;28667;50.758;6.096;2023-08-12T00:28:00;20.70;99.90
43043;DHT22;28667;50.758;6.096;2023-08-12T00:30:25;20.70;99.90
43043;DHT22;28667;50.758;6.096;2023-08-12T00:32:51;20.70;99.90
43043;DHT22;28667;50.758;6.096;2023-08-12T00:35:18;20.70;99.90
43043;DHT22;28667;50.758;6.096;2023-08-12T00:37:45;20.70;99.90
43043;DHT22;28667;50.758;6.096;2023-08-12T00:40:11;20.70;99.90
43043;DHT22;28667;50.758;6.096;2023-08-12T00:42:37;20.70;99.90
43043;DHT22;28667;50.758;6.096;2023-08-12T00:45:03;20.70;99.90
43043;DHT22;28667;50.758;6.096;2023-08-12T00:47:30;20.60;99.90
43043;DHT22;28667;50.758;6.096;2023-08-12T00:49:56;20.60;99.90
43043;DHT22;28667;50.758;6.096;2023-08-12T00:52:24;20.60;99.90
43043;DHT22;28667;50.758;6.096;2023-08-12T00:54:50;20.60;99.90
43043;DHT22;28667;50.758;6.096;2023-08-12T00:57:16;20.60;99.90
43043;DHT22;28667;50.758;6.096;2023-08-12T00:59:42;20.60;99.90
43043;DHT22;28667;50.758;6.096;2023-08-12T01:02:09;20.60;99.90
43043;DHT22;28667;50.758;6.096;2023-08-12T01:04:36;20.60;99.90
43043;DHT22;28667;50.758;6.096;2023-08-12T01:07:02;20.60;99.90
43043;DHT22;28667;50.758;6.096;2023-08-12T01:09:29;20.60;99.90
43043;DHT22;28667;50.758;6.096;2023-08-12T01:17:00;20.50;99.90
43043;DHT22;28667;50.758;6.096;2023-08-12T01:19:37;20.50;99.90
43043;DHT22;28667;50.758;6.096;2023-08-12T01:22:04;20.50;99.90
43043;DHT22;28667;50.758;6.096;2023-08-12T01:24:41;20.50;99.90
43043;DHT22;28667;50.758;6.096;2023-08-12T01:27:09;20.50;99.90
43043;DHT22;28667;50.758;6.096;2023-08-12T01:29:44;20.50;99.90
43043;DHT22;28667;50.758;6.096;2023-08-12T01:32:41;20.50;99.90
43043;DHT22;28667;50.758;6.096;2023-08-12T01:35:19;20.50;99.90
43043;DHT22;28667;50.758;6.096;2023-08-12T01:37:48;20.50;99.90
43043;DHT22;28667;50.758;6.096;2023-08-12T01:40:15;20.50;99.90
43043;DHT22;28667;50.758;6.096;2023-08-12T01:42:42;20.50;99.90
43043;DHT22;28667;50.758;6.096;2023-08-12T01:45:08;20.50;99.90
43043;DHT22;28667;50.758;6.096;2023-08-12T01:47:34;20.50;99.90
43043;DHT22;28667;50.758;6.096;2023-08-12T01:50:00;20.50;99.90
43043;DHT22;28667;50.758;6.096;2023-08-12T01:52:26;20.50;99.90
43043;DHT22;28667;50.758;6.096;2023-08-12T01:54:53;20.50;99.90
43043;DHT22;28667;50.758;6.096;2023-08-12T01:57:19;20.50;99.90
43043;DHT22;28667;50.758;6.096;2023-08-12T01:59:45;20.40;99.90
43043;DHT22;28667;50.758;6.096;2023-08-12T02:02:11;20.50;99.90
43043;DHT22;28667;50.758;6.096;2023-08-12T02:04:37;20.50;99.90
43043;DHT22;28667;50.758;6.096;2023-08-12T02:07:03;20.40;99.90
43043;DHT22;28667;50.758;6.096;2023-08-12T02:09:29;20.40;99.90
43043;DHT22;28667;50.758;6.096;2023-08-12T02:11:56;20.40;99.90
43043;DHT22;28667;50.758;6.096;2023-08-12T02:14:22;20.40;99.90
43043;DHT22;28667;50.758;6.096;2023-08-12T02:16:48;20.40;99.90
43043;DHT22;28667;50.758;6.096;2023-08-12T02:19:14;20.40;99.90
43043;DHT22;28667;50.758;6.096;2023-08-12T02:21:40;20.40;99.90
43043;DHT22;28667;50.758;6.096;2023-08-12T02:24:07;20.40;99.90
43043;DHT22;28667;50.758;6.096;2023-08-12T02:26:33;20.40;99.90
43043;DHT22;28667;50.758;6.096;2023-08-12T02:28:59;20.40;99.90
43043;DHT22;28667;50.758;6.096;2023-08-12T02:31:25;20.40;99.90
43043;DHT22;28667;50.758;6.096;2023-08-12T02:33:51;20.40;99.90
43043;DHT22;28667;50.758;6.096;2023-08-12T02:36:17;20.40;99.90
43043;DHT22;28667;50.758;6.096;2023-08-12T02:38:42;20.30;99.90
43043;DHT22;28667;50.758;6.096;2023-08-12T02:41:08;20.40;99.90
43043;DHT22;28667;50.758;6.096;2023-08-12T02:43:34;20.30;99.90
43043;DHT22;28667;50.758;6.096;2023-08-12T02:46:02;20.30;99.90
43043;DHT22;28667;50.758;6.096;2023-08-12T02:48:27;20.30;99.90
43043;DHT22;28667;50.758;6.096;2023-08-12T02:50:53;20.30;99.90
43043;DHT22;28667;50.758;6.096;2023-08-12T02:53:19;20.30;99.90
43043;DHT22;28667;50.758;6.096;2023-08-12T02:55:45;20.20;99.90
43043;DHT22;28667;50.758;6.096;2023-08-12T02:58:11;20.20;99.90
43043;DHT22;28667;50.758;6.096;2023-08-12T03:00:37;20.20;99.90
43043;DHT22;28667;50.758;6.096;2023-08-12T03:03:02;20.20;99.90
43043;DHT22;28667;50.758;6.096;2023-08-12T03:05:30;20.10;99.90
43043;DHT22;28667;50.758;6.096;2023-08-12T03:07:56;20.10;99.90
43043;DHT22;28667;50.758;6.096;2023-08-12T03:10:27;20.00;99.90
43043;DHT22;28667;50.758;6.096;2023-08-12T03:12:52;20.00;99.90
43043;DHT22;28667;50.758;6.096;2023-08-12T03:15:20;19.90;99.90
43043;DHT22;28667;50.758;6.096;2023-08-12T03:17:47;19.90;99.90
43043;DHT22;28667;50.758;6.096;2023-08-12T03:20:13;19.90;99.90
43043;DHT22;28667;50.758;6.096;2023-08-12T03:22:39;19.80;99.90
43043;DHT22;28667;50.758;6.096;2023-08-12T03:25:05;19.80;99.90
43043;DHT22;28667;50.758;6.096;2023-08-12T03:27:32;19.70;99.90
43043;DHT22;28667;50.758;6.096;2023-08-12T03:29:58;19.70;99.90
43043;DHT22;28667;50.758;6.096;2023-08-12T03:32:27;19.70;99.90
43043;DHT22;28667;50.758;6.096;2023-08-12T03:34:54;19.70;99.90
43043;DHT22;28667;50.758;6.096;2023-08-12T03:37:20;19.70;99.90
43043;DHT22;28667;50.758;6.096;2023-08-12T03:39:48;19.60;99.90
43043;DHT22;28667;50.758;6.096;2023-08-12T03:42:14;19.60;99.90
43043;DHT22;28667;50.758;6.096;2023-08-12T03:44:43;19.60;99.90
43043;DHT22;28667;50.758;6.096;2023-08-12T03:47:09;19.60;99.90
43043;DHT22;28667;50.758;6.096;2023-08-12T03:49:37;19.60;99.90
43043;DHT22;28667;50.758;6.096;2023-08-12T03:52:03;19.60;99.90
43043;DHT22;28667;50.758;6.096;2023-08-12T03:54:30;19.60;99.90
43043;DHT22;28667;50.758;6.096;2023-08-12T03:56:55;19.60;99.90
43043;DHT22;28667;50.758;6.096;2023-08-12T03:59:22;19.60;99.90
43043;DHT22;28667;50.758;6.096;2023-08-12T04:01:48;19.60;99.90
43043;DHT22;28667;50.758;6.096;2023-08-12T04:04:14;19.60;99.90
43043;DHT22;28667;50.758;6.096;2023-08-12T04:06:39;19.60;99.90
43043;DHT22;28667;50.758;6.096;2023-08-12T04:09:05;19.50;99.90
43043;DHT22;28667;50.758;6.096;2023-08-12T04:11:31;19.50;99.90
43043;DHT22;28667;50.758;6.096;2023-08-12T04:13:57;19.50;99.90
43043;DHT22;28667;50.758;6.096;2023-08-12T04:16:23;19.50;99.90
43043;DHT22;28667;50.758;6.096;2023-08-12T04:18:48;19.50;99.90
43043;DHT22;28667;50.758;6.096;2023-08-12T04:21:14;19.50;99.90
43043;DHT22;28667;50.758;6.096;2023-08-12T04:23:40;19.50;99.90
43043;DHT22;28667;50.758;6.096;2023-08-12T04:26:06;19.50;99.90
43043;DHT22;28667;50.758;6.096;2023-08-12T04:28:32;19.40;99.90
43043;DHT22;28667;50.758;6.096;2023-08-12T04:30:58;19.50;99.90
43043;DHT22;28667;50.758;6.096;2023-08-12T04:33:25;19.40;99.90
43043;DHT22;28667;50.758;6.096;2023-08-12T04:35:52;19.40;99.90
43043;DHT22;28667;50.758;6.096;2023-08-12T04:38:18;19.50;99.90
43043;DHT22;28667;50.758;6.096;2023-08-12T04:40:45;19.50;99.90
43043;DHT22;28667;50.758;6.096;2023-08-12T04:43:12;19.50;99.90
43043;DHT22;28667;50.758;6.096;2023-08-12T04:45:39;19.50;99.90
43043;DHT22;28667;50.758;6.096;2023-08-12T04:48:06;19.50;99.90
43043;DHT22;28667;50.758;6.096;2023-08-12T04:50:34;19.50;99.90
43043;DHT22;28667;50.758;6.096;2023-08-12T04:53:00;19.50;99.90
43043;DHT22;28667;50.758;6.096;2023-08-12T04:55:27;19.50;99.90
43043;DHT22;28667;50.758;6.096;2023-08-12T04:57:53;19.50;99.90
43043;DHT22;28667;50.758;6.096;2023-08-12T05:00:20;19.50;99.90
43043;DHT22;28667;50.758;6.096;2023-08-12T05:02:46;19.50;99.90
43043;DHT22;28667;50.758;6.096;2023-08-12T05:05:12;19.50;99.90
43043;DHT22;28667;50.758;6.096;2023-08-12T05:07:38;19.50;99.90
43043;DHT22;28667;50.758;6.096;2023-08-12T05:10:04;19.40;99.90
43043;DHT22;28667;50.758;6.096;2023-08-12T05:12:31;19.40;99.90
43043;DHT22;28667;50.758;6.096;2023-08-12T05:14:57;19.30;99.90
43043;DHT22;28667;50.758;6.096;2023-08-12T05:17:23;19.30;99.90
43043;DHT22;28667;50.758;6.096;2023-08-12T05:19:49;19.30;99.90
43043;DHT22;28667;50.758;6.096;2023-08-12T05:22:16;19.30;99.90
43043;DHT22;28667;50.758;6.096;2023-08-12T05:24:42;19.30;99.90
43043;DHT22;28667;50.758;6.096;2023-08-12T05:27:07;19.20;99.90
43043;DHT22;28667;50.758;6.096;2023-08-12T05:29:33;19.20;99.90
43043;DHT22;28667;50.758;6.096;2023-08-12T05:31:59;19.10;99.90
43043;DHT22;28667;50.758;6.096;2023-08-12T05:34:24;19.10;99.90
43043;DHT22;28667;50.758;6.096;2023-08-12T05:36:50;19.10;99.90
43043;DHT22;28667;50.758;6.096;2023-08-12T05:39:16;19.10;99.90
43043;DHT22;28667;50.758;6.096;2023-08-12T05:41:41;19.10;99.90
43043;DHT22;28667;50.758;6.096;2023-08-12T05:44:07;19.10;99.90
43043;DHT22;28667;50.758;6.096;2023-08-12T05:46:33;19.10;99.90
43043;DHT22;28667;50.758;6.096;2023-08-12T05:48:59;19.10;99.90
43043;DHT22;28667;50.758;6.096;2023-08-12T05:51:25;19.10;99.90
43043;DHT22;28667;50.758;6.096;2023-08-12T05:53:51;19.10;99.90
43043;DHT22;28667;50.758;6.096;2023-08-12T05:56:17;19.10;99.90
43043;DHT22;28667;50.758;6.096;2023-08-12T05:58:42;19.10;99.90
43043;DHT22;28667;50.758;6.096;2023-08-12T06:01:08;19.10;99.90
43043;DHT22;28667;50.758;6.096;2023-08-12T06:03:34;19.20;99.90
43043;DHT22;28667;50.758;6.096;2023-08-12T06:06:00;19.30;99.90
43043;DHT22;28667;50.758;6.096;2023-08-12T06:08:25;19.40;99.90
43043;DHT22;28667;50.758;6.096;2023-08-12T06:10:51;19.50;99.90
43043;DHT22;28667;50.758;6.096;2023-08-12T06:13:17;19.50;99.90
43043;DHT22;28667;50.758;6.096;2023-08-12T06:15:43;19.50;99.90
43043;DHT22;28667;50.758;6.096;2023-08-12T06:18:08;19.50;99.90
43043;DHT22;28667;50.758;6.096;2023-08-12T06:20:34;19.60;99.90
43043;DHT22;28667;50.758;6.096;2023-08-12T06:23:01;19.60;99.90
43043;DHT22;28667;50.758;6.096;2023-08-12T06:25:26;19.60;99.90
43043;DHT22;28667;50.758;6.096;2023-08-12T06:27:52;19.70;99.90
43043;DHT22;28667;50.758;6.096;2023-08-12T06:30:18;19.80;99.90
43043;DHT22;28667;50.758;6.096;2023-08-12T06:32:46;19.90;99.90
43043;DHT22;28667;50.758;6.096;2023-08-12T06:35:12;20.00;99.90
43043;DHT22;28667;50.758;6.096;2023-08-12T06:37:38;20.10;99.90
43043;DHT22;28667;50.758;6.096;2023-08-12T06:40:04;20.20;99.90
43043;DHT22;28667;50.758;6.096;2023-08-12T06:42:32;20.30;99.90
43043;DHT22;28667;50.758;6.096;2023-08-12T06:44:59;20.40;99.90
43043;DHT22;28667;50.758;6.096;2023-08-12T06:47:25;20.40;99.90
43043;DHT22;28667;50.758;6.096;2023-08-12T06:49:53;20.40;99.90
43043;DHT22;28667;50.758;6.096;2023-08-12T06:52:19;20.40;99.90
43043;DHT22;28667;50.758;6.096;2023-08-12T06:54:44;20.40;99.90
43043;DHT22;28667;50.758;6.096;2023-08-12T06:57:11;20.40;99.90
43043;DHT22;28667;50.758;6.096;2023-08-12T06:59:37;20.40;99.90
43043;DHT22;28667;50.758;6.096;2023-08-12T07:02:03;20.40;99.90
43043;DHT22;28667;50.758;6.096;2023-08-12T07:04:29;20.40;99.90
43043;DHT22;28667;50.758;6.096;2023-08-12T07:06:55;20.50;99.90
43043;DHT22;28667;50.758;6.096;2023-08-12T07:09:21;20.60;99.90
43043;DHT22;28667;50.758;6.096;2023-08-12T07:11:47;20.70;99.90
43043;DHT22;28667;50.758;6.096;2023-08-12T07:14:12;20.80;99.90
43043;DHT22;28667;50.758;6.096;2023-08-12T07:16:38;20.90;99.90
43043;DHT22;28667;50.758;6.096;2023-08-12T07:19:04;20.90;99.90
43043;DHT22;28667;50.758;6.096;2023-08-12T07:21:30;20.90;99.90
43043;DHT22;28667;50.758;6.096;2023-08-12T07:23:55;20.90;99.90
43043;DHT22;28667;50.758;6.096;2023-08-12T07:26:21;20.80;99.90
43043;DHT22;28667;50.758;6.096;2023-08-12T07:28:47;20.80;99.90
43043;DHT22;28667;50.758;6.096;2023-08-12T07:31:13;20.80;99.90
43043;DHT22;28667;50.758;6.096;2023-08-12T07:33:39;20.70;99.90
43043;DHT22;28667;50.758;6.096;2023-08-12T07:36:05;20.70;99.90
43043;DHT22;28667;50.758;6.096;2023-08-12T07:38:30;20.60;99.90
43043;DHT22;28667;50.758;6.096;2023-08-12T07:40:57;20.60;99.90
43043;DHT22;28667;50.758;6.096;2023-08-12T07:43:23;20.60;99.90
43043;DHT22;28667;50.758;6.096;2023-08-12T07:45:52;20.60;99.90
43043;DHT22;28667;50.758;6.096;2023-08-12T07:48:19;20.60;99.90
43043;DHT22;28667;50.758;6.096;2023-08-12T07:50:45;20.60;99.90
43043;DHT22;28667;50.758;6.096;2023-08-12T07:53:15;20.60;99.90
43043;DHT22;28667;50.758;6.096;2023-08-12T07:55:42;20.50;99.90
43043;DHT22;28667;50.758;6.096;2023-08-12T07:58:08;20.50;99.90
43043;DHT22;28667;50.758;6.096;2023-08-12T08:00:34;20.60;99.90
43043;DHT22;28667;50.758;6.096;2023-08-12T08:02:59;20.60;99.90
43043;DHT22;28667;50.758;6.096;2023-08-12T08:05:25;20.60;99.90
43043;DHT22;28667;50.758;6.096;2023-08-12T08:07:51;20.60;99.90
43043;DHT22;28667;50.758;6.096;2023-08-12T08:10:17;20.60;99.90
43043;DHT22;28667;50.758;6.096;2023-08-12T08:12:42;20.70;99.90
43043;DHT22;28667;50.758;6.096;2023-08-12T08:15:08;20.70;99.90
43043;DHT22;28667;50.758;6.096;2023-08-12T08:17:34;20.80;99.90
43043;DHT22;28667;50.758;6.096;2023-08-12T08:20:00;20.90;99.90
43043;DHT22;28667;50.758;6.096;2023-08-12T08:22:25;21.10;99.90
43043;DHT22;28667;50.758;6.096;2023-08-12T08:24:51;21.20;99.90
43043;DHT22;28667;50.758;6.096;2023-08-12T08:27:17;21.40;99.90
43043;DHT22;28667;50.758;6.096;2023-08-12T08:29:43;21.40;99.90
43043;DHT22;28667;50.758;6.096;2023-08-12T08:32:08;21.50;99.90
43043;DHT22;28667;50.758;6.096;2023-08-12T08:34:34;21.60;99.90
43043;DHT22;28667;50.758;6.096;2023-08-12T08:37:00;21.80;99.90
43043;DHT22;28667;50.758;6.096;2023-08-12T08:39:26;21.90;99.90
43043;DHT22;28667;50.758;6.096;2023-08-12T08:41:53;22.00;99.90
43043;DHT22;28667;50.758;6.096;2023-08-12T08:44:22;22.20;99.90
43043;DHT22;28667;50.758;6.096;2023-08-12T08:46:52;22.20;99.90
43043;DHT22;28667;50.758;6.096;2023-08-12T08:49:19;22.20;99.90
43043;DHT22;28667;50.758;6.096;2023-08-12T08:51:48;22.10;99.90
43043;DHT22;28667;50.758;6.096;2023-08-12T08:54:15;22.00;99.90
43043;DHT22;28667;50.758;6.096;2023-08-12T08:56:41;21.90;99.90
43043;DHT22;28667;50.758;6.096;2023-08-12T08:59:07;21.90;99.90
43043;DHT22;28667;50.758;6.096;2023-08-12T09:01:35;22.00;99.90
43043;DHT22;28667;50.758;6.096;2023-08-12T09:04:03;22.10;99.90
43043;DHT22;28667;50.758;6.096;2023-08-12T09:06:32;22.20;99.90
43043;DHT22;28667;50.758;6.096;2023-08-12T09:09:01;22.30;99.90
43043;DHT22;28667;50.758;6.096;2023-08-12T09:11:28;22.40;99.90
43043;DHT22;28667;50.758;6.096;2023-08-12T09:13:54;22.50;99.90
43043;DHT22;28667;50.758;6.096;2023-08-12T09:16:19;22.50;99.90
43043;DHT22;28667;50.758;6.096;2023-08-12T09:18:45;22.50;99.90
43043;DHT22;28667;50.758;6.096;2023-08-12T09:21:11;22.50;99.90
43043;DHT22;28667;50.758;6.096;2023-08-12T09:23:39;22.40;99.90
43043;DHT22;28667;50.758;6.096;2023-08-12T09:26:19;22.40;99.90
43043;DHT22;28667;50.758;6.096;2023-08-12T09:28:46;22.30;99.90
43043;DHT22;28667;50.758;6.096;2023-08-12T09:31:25;22.30;99.90
43043;DHT22;28667;50.758;6.096;2023-08-12T09:33:52;22.40;99.90
43043;DHT22;28667;50.758;6.096;2023-08-12T09:36:20;22.40;99.90
43043;DHT22;28667;50.758;6.096;2023-08-12T09:38:46;22.50;99.90
43043;DHT22;28667;50.758;6.096;2023-08-12T09:41:13;22.60;99.90
43043;DHT22;28667;50.758;6.096;2023-08-12T09:43:42;22.80;99.90
43043;DHT22;28667;50.758;6.096;2023-08-12T09:46:12;22.90;99.90
43043;DHT22;28667;50.758;6.096;2023-08-12T09:48:39;23.10;99.90
43043;DHT22;28667;50.758;6.096;2023-08-12T09:51:06;23.20;99.90
43043;DHT22;28667;50.758;6.096;2023-08-12T09:53:32;23.30;99.90
43043;DHT22;28667;50.758;6.096;2023-08-12T09:56:07;23.40;99.90
43043;DHT22;28667;50.758;6.096;2023-08-12T09:58:37;23.50;99.90
43043;DHT22;28667;50.758;6.096;2023-08-12T10:01:03;23.50;99.90
43043;DHT22;28667;50.758;6.096;2023-08-12T10:03:34;23.50;99.90
43043;DHT22;28667;50.758;6.096;2023-08-12T10:06:01;23.50;99.90
43043;DHT22;28667;50.758;6.096;2023-08-12T10:08:31;23.50;99.90
43043;DHT22;28667;50.758;6.096;2023-08-12T10:10:58;23.50;99.90
43043;DHT22;28667;50.758;6.096;2023-08-12T10:13:24;23.40;99.90
43043;DHT22;28667;50.758;6.096;2023-08-12T10:15:50;23.30;99.90
43043;DHT22;28667;50.758;6.096;2023-08-12T10:18:18;23.20;99.90
43043;DHT22;28667;50.758;6.096;2023-08-12T10:20:47;23.10;99.90
43043;DHT22;28667;50.758;6.096;2023-08-12T10:23:16;23.00;99.90
43043;DHT22;28667;50.758;6.096;2023-08-12T10:25:44;23.00;99.90
43043;DHT22;28667;50.758;6.096;2023-08-12T10:28:11;22.90;99.90
43043;DHT22;28667;50.758;6.096;2023-08-12T10:30:37;22.90;99.90
43043;DHT22;28667;50.758;6.096;2023-08-12T10:33:04;23.00;99.90
43043;DHT22;28667;50.758;6.096;2023-08-12T10:35:45;23.20;99.90
43043;DHT22;28667;50.758;6.096;2023-08-12T10:38:19;23.30;99.90
43043;DHT22;28667;50.758;6.096;2023-08-12T10:40:45;23.60;99.90
43043;DHT22;28667;50.758;6.096;2023-08-12T10:43:14;23.80;99.90
43043;DHT22;28667;50.758;6.096;2023-08-12T10:45:51;24.00;99.90
43043;DHT22;28667;50.758;6.096;2023-08-12T10:50:52;24.20;99.90
43043;DHT22;28667;50.758;6.096;2023-08-12T10:53:22;24.30;99.90
43043;DHT22;28667;50.758;6.096;2023-08-12T10:55:50;24.20;99.90
43043;DHT22;28667;50.758;6.096;2023-08-12T10:58:45;24.20;99.90
43043;DHT22;28667;50.758;6.096;2023-08-12T11:01:18;24.30;99.90
43043;DHT22;28667;50.758;6.096;2023-08-12T11:03:44;24.40;99.90
43043;DHT22;28667;50.758;6.096;2023-08-12T11:06:11;24.60;99.90
43043;DHT22;28667;50.758;6.096;2023-08-12T11:08:45;24.60;99.90
43043;DHT22;28667;50.758;6.096;2023-08-12T11:11:22;24.50;99.90
43043;DHT22;28667;50.758;6.096;2023-08-12T11:13:57;24.40;99.90
43043;DHT22;28667;50.758;6.096;2023-08-12T11:16:35;24.40;99.90
43043;DHT22;28667;50.758;6.096;2023-08-12T11:19:01;24.20;99.90
43043;DHT22;28667;50.758;6.096;2023-08-12T11:21:28;24.20;99.90
43043;DHT22;28667;50.758;6.096;2023-08-12T11:23:55;24.20;99.90
43043;DHT22;28667;50.758;6.096;2023-08-12T11:26:26;24.20;99.90
43043;DHT22;28667;50.758;6.096;2023-08-12T11:28:53;24.10;99.90
43043;DHT22;28667;50.758;6.096;2023-08-12T11:31:19;24.10;99.90
43043;DHT22;28667;50.758;6.096;2023-08-12T11:33:45;24.10;99.90
43043;DHT22;28667;50.758;6.096;2023-08-12T11:36:10;24.20;99.90
43043;DHT22;28667;50.758;6.096;2023-08-12T11:38:37;24.20;99.90
43043;DHT22;28667;50.758;6.096;2023-08-12T11:41:03;24.40;99.90
43043;DHT22;28667;50.758;6.096;2023-08-12T11:43:29;24.60;99.90
43043;DHT22;28667;50.758;6.096;2023-08-12T11:45:57;25.00;99.90
43043;DHT22;28667;50.758;6.096;2023-08-12T11:48:24;25.20;99.90
43043;DHT22;28667;50.758;6.096;2023-08-12T11:50:50;25.30;99.90
43043;DHT22;28667;50.758;6.096;2023-08-12T11:53:18;25.40;99.90
43043;DHT22;28667;50.758;6.096;2023-08-12T11:55:44;25.50;99.90
43043;DHT22;28667;50.758;6.096;2023-08-12T11:58:15;25.30;99.90
43043;DHT22;28667;50.758;6.096;2023-08-12T12:00:46;25.00;99.90
43043;DHT22;28667;50.758;6.096;2023-08-12T12:03:12;24.50;99.90
43043;DHT22;28667;50.758;6.096;2023-08-12T12:05:38;23.90;99.90
43043;DHT22;28667;50.758;6.096;2023-08-12T12:08:04;23.50;99.90
43043;DHT22;28667;50.758;6.096;2023-08-12T12:10:32;23.40;99.90
43043;DHT22;28667;50.758;6.096;2023-08-12T12:13:00;23.20;99.90
43043;DHT22;28667;50.758;6.096;2023-08-12T12:15:26;23.00;99.90
43043;DHT22;28667;50.758;6.096;2023-08-12T12:17:52;22.90;99.90
43043;DHT22;28667;50.758;6.096;2023-08-12T12:20:18;22.80;99.90
43043;DHT22;28667;50.758;6.096;2023-08-12T12:22:45;22.70;99.90
43043;DHT22;28667;50.758;6.096;2023-08-12T12:25:12;22.50;99.90
43043;DHT22;28667;50.758;6.096;2023-08-12T12:27:39;22.50;99.90
43043;DHT22;28667;50.758;6.096;2023-08-12T12:30:10;22.50;99.90
43043;DHT22;28667;50.758;6.096;2023-08-12T12:32:36;22.50;99.90
43043;DHT22;28667;50.758;6.096;2023-08-12T12:35:03;22.60;99.90
43043;DHT22;28667;50.758;6.096;2023-08-12T12:37:29;22.60;99.90
43043;DHT22;28667;50.758;6.096;2023-08-12T12:39:55;22.80;99.90
43043;DHT22;28667;50.758;6.096;2023-08-12T12:42:21;22.90;99.90
43043;DHT22;28667;50.758;6.096;2023-08-12T12:44:46;22.90;99.90
43043;DHT22;28667;50.758;6.096;2023-08-12T12:47:12;23.10;99.90
43043;DHT22;28667;50.758;6.096;2023-08-12T12:49:41;23.30;99.90
43043;DHT22;28667;50.758;6.096;2023-08-12T12:52:07;23.50;99.90
43043;DHT22;28667;50.758;6.096;2023-08-12T12:54:33;23.50;99.90
43043;DHT22;28667;50.758;6.096;2023-08-12T12:56:59;23.70;99.90
43043;DHT22;28667;50.758;6.096;2023-08-12T12:59:24;23.70;99.90
43043;DHT22;28667;50.758;6.096;2023-08-12T13:01:50;23.70;99.90
43043;DHT22;28667;50.758;6.096;2023-08-12T13:04:16;23.80;99.90
43043;DHT22;28667;50.758;6.096;2023-08-12T13:06:42;23.90;99.90
43043;DHT22;28667;50.758;6.096;2023-08-12T13:09:08;23.90;99.90
43043;DHT22;28667;50.758;6.096;2023-08-12T13:11:33;23.80;99.90
43043;DHT22;28667;50.758;6.096;2023-08-12T13:14:03;23.80;99.90
43043;DHT22;28667;50.758;6.096;2023-08-12T13:16:30;23.70;99.90
43043;DHT22;28667;50.758;6.096;2023-08-12T13:18:56;23.70;99.90
43043;DHT22;28667;50.758;6.096;2023-08-12T13:21:24;23.90;99.90
43043;DHT22;28667;50.758;6.096;2023-08-12T13:23:50;24.00;99.90
43043;DHT22;28667;50.758;6.096;2023-08-12T13:26:16;24.00;99.90
43043;DHT22;28667;50.758;6.096;2023-08-12T13:28:43;24.00;99.90
43043;DHT22;28667;50.758;6.096;2023-08-12T13:31:09;24.10;99.90
43043;DHT22;28667;50.758;6.096;2023-08-12T13:33:35;24.10;99.90
43043;DHT22;28667;50.758;6.096;2023-08-12T13:36:01;24.10;99.90
43043;DHT22;28667;50.758;6.096;2023-08-12T13:38:26;24.20;99.90
43043;DHT22;28667;50.758;6.096;2023-08-12T13:40:52;24.40;99.90
43043;DHT22;28667;50.758;6.096;2023-08-12T13:43:18;24.40;99.90
43043;DHT22;28667;50.758;6.096;2023-08-12T13:45:43;24.40;99.90
43043;DHT22;28667;50.758;6.096;2023-08-12T13:48:09;24.40;99.90
43043;DHT22;28667;50.758;6.096;2023-08-12T13:50:35;24.30;99.90
43043;DHT22;28667;50.758;6.096;2023-08-12T13:53:02;24.20;99.90
43043;DHT22;28667;50.758;6.096;2023-08-12T13:55:28;24.10;99.90
43043;DHT22;28667;50.758;6.096;2023-08-12T13:57:54;24.10;99.90
43043;DHT22;28667;50.758;6.096;2023-08-12T14:00:20;24.10;99.90
43043;DHT22;28667;50.758;6.096;2023-08-12T14:02:46;24.10;99.90
43043;DHT22;28667;50.758;6.096;2023-08-12T14:05:14;24.10;99.90
43043;DHT22;28667;50.758;6.096;2023-08-12T14:07:40;24.10;99.90
43043;DHT22;28667;50.758;6.096;2023-08-12T14:10:07;24.20;99.90
43043;DHT22;28667;50.758;6.096;2023-08-12T14:12:32;24.20;99.90
43043;DHT22;28667;50.758;6.096;2023-08-12T14:14:58;24.20;99.90
43043;DHT22;28667;50.758;6.096;2023-08-12T14:17:24;24.20;99.90
43043;DHT22;28667;50.758;6.096;2023-08-12T14:19:51;24.30;99.90
43043;DHT22;28667;50.758;6.096;2023-08-12T14:22:19;24.40;99.90
43043;DHT22;28667;50.758;6.096;2023-08-12T14:24:45;24.60;99.90
43043;DHT22;28667;50.758;6.096;2023-08-12T14:27:11;25.00;99.90
43043;DHT22;28667;50.758;6.096;2023-08-12T14:29:38;25.10;99.90
43043;DHT22;28667;50.758;6.096;2023-08-12T14:32:04;25.20;99.90
43043;DHT22;28667;50.758;6.096;2023-08-12T14:34:30;25.30;99.90
43043;DHT22;28667;50.758;6.096;2023-08-12T14:36:55;25.40;99.90
43043;DHT22;28667;50.758;6.096;2023-08-12T14:39:21;25.40;99.90
43043;DHT22;28667;50.758;6.096;2023-08-12T14:41:47;25.30;99.90
43043;DHT22;28667;50.758;6.096;2023-08-12T14:44:14;25.30;99.90
43043;DHT22;28667;50.758;6.096;2023-08-12T14:46:41;25.20;99.90
43043;DHT22;28667;50.758;6.096;2023-08-12T14:49:06;25.00;99.90
43043;DHT22;28667;50.758;6.096;2023-08-12T14:51:32;24.90;99.90
43043;DHT22;28667;50.758;6.096;2023-08-12T14:53:58;24.80;99.90
43043;DHT22;28667;50.758;6.096;2023-08-12T14:56:24;24.70;99.90
43043;DHT22;28667;50.758;6.096;2023-08-12T14:58:49;24.70;99.90
43043;DHT22;28667;50.758;6.096;2023-08-12T15:01:15;24.60;99.90
43043;DHT22;28667;50.758;6.096;2023-08-12T15:03:42;24.60;99.90
43043;DHT22;28667;50.758;6.096;2023-08-12T15:06:08;24.50;99.90
43043;DHT22;28667;50.758;6.096;2023-08-12T15:08:33;24.40;99.90
43043;DHT22;28667;50.758;6.096;2023-08-12T15:10:59;24.30;99.90
43043;DHT22;28667;50.758;6.096;2023-08-12T15:13:25;24.30;99.90
43043;DHT22;28667;50.758;6.096;2023-08-12T15:15:51;24.40;99.90
43043;DHT22;28667;50.758;6.096;2023-08-12T15:18:17;24.50;99.90
43043;DHT22;28667;50.758;6.096;2023-08-12T15:20:44;24.50;99.90
43043;DHT22;28667;50.758;6.096;2023-08-12T15:23:10;24.60;99.90
43043;DHT22;28667;50.758;6.096;2023-08-12T15:25:36;24.60;99.90
43043;DHT22;28667;50.758;6.096;2023-08-12T15:28:02;24.60;99.90
43043;DHT22;28667;50.758;6.096;2023-08-12T15:30:31;24.70;99.90
43043;DHT22;28667;50.758;6.096;2023-08-12T15:32:57;24.90;99.90
43043;DHT22;28667;50.758;6.096;2023-08-12T15:35:22;25.00;99.90